Time;durP1;ratioP1;P1;durP2;ratioP2;P2;SDS_P1;SDS_P2;PMS_P1;PMS_P2;Temp;Humidity;BMP_temperature;BMP_pressure;BME280_temperature;BME280_humidity;BME280_pressure;Samples;Min_cycle;Max_cycle;Signal;HPM_P1;HPM_P2
2022/03/04 00:01:34;;;;;;;11.23;7.53;;;11.30;99.90;;;;;;5042850;28;20059;-77
2022/03/04 00:04:00;;;;;;;16.42;9.38;;;11.20;99.90;;;;;;5039280;28;20033;-75
2022/03/04 00:06:27;;;;;;;14.68;7.72;;;11.10;99.90;;;;;;5038661;28;20029;-76
2022/03/04 00:08:53;;;;;;;11.52;7.88;;;11.10;99.90;;;;;;5045438;28;20094;-76
2022/03/04 00:11:19;;;;;;;12.15;8.07;;;11.00;99.90;;;;;;5028647;28;20087;-75
2022/03/04 00:13:45;;;;;;;14.75;8.45;;;11.00;99.90;;;;;;5045267;28;20033;-74
2022/03/04 00:16:13;;;;;;;16.60;8.80;;;11.00;99.90;;;;;;5055323;28;20037;-75
2022/03/04 00:18:39;;;;;;;15.60;8.95;;;11.00;99.90;;;;;;5042644;28;20484;-75
2022/03/04 00:21:07;;;;;;;13.65;9.45;;;11.00;99.90;;;;;;5040842;28;20030;-75
2022/03/04 00:23:33;;;;;;;14.85;10.27;;;11.00;99.90;;;;;;5043919;28;20037;-75
2022/03/04 00:25:59;;;;;;;17.13;10.38;;;11.00;99.90;;;;;;5044783;28;20641;-74
2022/03/04 00:28:25;;;;;;;16.10;11.05;;;11.00;99.90;;;;;;5041335;28;20123;-74
2022/03/04 00:30:51;;;;;;;18.98;11.35;;;11.00;99.90;;;;;;5040649;28;20035;-74
2022/03/04 00:33:17;;;;;;;17.20;11.55;;;11.00;99.90;;;;;;5044492;28;20521;-74
2022/03/04 00:35:43;;;;;;;16.42;10.63;;;10.90;99.90;;;;;;5043636;28;20037;-75
2022/03/04 00:38:09;;;;;;;15.70;10.68;;;11.00;99.90;;;;;;5046299;28;20033;-75
2022/03/04 00:40:35;;;;;;;17.40;10.73;;;10.90;99.90;;;;;;5031226;28;20049;-74
2022/03/04 00:43:02;;;;;;;15.75;10.20;;;10.80;99.90;;;;;;5051032;28;20096;-74
2022/03/04 00:45:28;;;;;;;18.15;10.50;;;10.80;99.90;;;;;;5041708;28;20114;-73
2022/03/04 00:47:54;;;;;;;17.30;10.85;;;10.80;99.90;;;;;;5039791;28;20041;-74
2022/03/04 00:50:20;;;;;;;15.77;9.15;;;10.80;99.90;;;;;;5047050;28;20049;-75
2022/03/04 00:52:46;;;;;;;13.88;8.85;;;10.80;99.90;;;;;;5040054;28;20044;-76
2022/03/04 00:55:11;;;;;;;16.70;8.50;;;10.90;99.90;;;;;;5054230;28;20044;-74
2022/03/04 00:57:37;;;;;;;16.15;8.27;;;10.80;99.90;;;;;;5021861;28;20555;-74
2022/03/04 01:00:05;;;;;;;15.02;8.82;;;10.80;99.90;;;;;;5039039;28;20044;-75
2022/03/04 01:02:32;;;;;;;14.48;8.82;;;10.70;99.90;;;;;;5044306;28;20041;-75
2022/03/04 01:04:58;;;;;;;13.68;8.82;;;10.70;99.90;;;;;;5043634;28;20037;-75
2022/03/04 01:07:24;;;;;;;15.15;8.75;;;10.70;99.90;;;;;;5053907;28;20044;-74
2022/03/04 01:09:51;;;;;;;16.50;8.77;;;10.80;99.90;;;;;;5060981;28;20033;-75
2022/03/04 01:12:16;;;;;;;15.38;9.40;;;10.90;99.90;;;;;;5053676;28;20396;-75
2022/03/04 01:14:43;;;;;;;17.00;9.95;;;10.90;99.90;;;;;;5053200;28;20045;-74
2022/03/04 01:17:09;;;;;;;13.73;9.35;;;11.00;99.90;;;;;;5037742;28;20033;-74
2022/03/04 01:19:36;;;;;;;16.55;10.40;;;11.10;99.90;;;;;;5054865;28;20041;-74
2022/03/04 01:22:02;;;;;;;17.70;11.80;;;11.10;99.90;;;;;;5042696;28;20158;-75
2022/03/04 01:24:28;;;;;;;19.42;12.43;;;11.10;99.90;;;;;;5043082;28;20052;-75
2022/03/04 01:26:54;;;;;;;15.80;11.13;;;11.10;99.90;;;;;;5042513;28;20037;-74
2022/03/04 01:29:20;;;;;;;18.27;12.68;;;11.10;99.90;;;;;;5042186;28;20029;-75
2022/03/04 01:31:46;;;;;;;19.38;11.98;;;11.00;99.90;;;;;;5054496;28;21030;-74
2022/03/04 01:34:12;;;;;;;20.35;12.85;;;11.00;99.90;;;;;;5045546;28;20038;-75
2022/03/04 01:36:39;;;;;;;18.45;12.43;;;11.00;99.90;;;;;;5073956;28;20489;-75
2022/03/04 01:39:05;;;;;;;20.40;13.00;;;11.00;99.90;;;;;;5043079;28;20040;-75
2022/03/04 01:41:31;;;;;;;17.63;11.45;;;11.00;99.90;;;;;;5039343;28;20373;-74
2022/03/04 01:43:58;;;;;;;18.80;12.40;;;11.00;99.90;;;;;;5042176;28;20040;-74
2022/03/04 01:46:28;;;;;;;21.35;11.88;;;11.00;99.90;;;;;;5054423;28;20033;-74
2022/03/04 01:48:55;;;;;;;16.95;11.48;;;11.00;99.90;;;;;;5040029;28;20061;-75
2022/03/04 01:51:21;;;;;;;16.75;11.20;;;11.00;99.90;;;;;;5058200;28;20048;-74
2022/03/04 01:53:47;;;;;;;21.33;11.88;;;11.10;99.90;;;;;;5038739;28;20044;-74
2022/03/04 01:56:14;;;;;;;20.27;11.38;;;11.10;99.90;;;;;;5041770;28;20041;-73
2022/03/04 01:58:40;;;;;;;19.48;11.23;;;11.20;99.90;;;;;;5059441;28;20055;-75
2022/03/04 02:01:06;;;;;;;18.33;11.50;;;11.10;99.90;;;;;;5052710;28;20061;-74
2022/03/04 02:03:33;;;;;;;16.50;10.57;;;11.10;99.90;;;;;;5054310;28;20064;-75
2022/03/04 02:05:59;;;;;;;16.88;11.60;;;11.10;99.90;;;;;;5046812;28;20029;-76
2022/03/04 02:08:26;;;;;;;18.33;11.98;;;11.10;99.90;;;;;;5041193;28;20055;-75
2022/03/04 02:10:52;;;;;;;16.00;10.93;;;11.10;99.90;;;;;;5043034;28;20044;-75
2022/03/04 02:13:19;;;;;;;15.10;10.80;;;11.10;99.90;;;;;;5055238;28;20063;-75
2022/03/04 02:15:45;;;;;;;16.67;11.32;;;11.10;99.90;;;;;;5057233;28;20040;-73
2022/03/04 02:18:15;;;;;;;16.10;10.82;;;11.10;99.90;;;;;;5041162;28;20032;-74
2022/03/04 02:20:45;;;;;;;17.25;11.50;;;11.10;99.90;;;;;;5041692;28;20064;-74
2022/03/04 02:23:12;;;;;;;17.02;11.80;;;11.10;99.90;;;;;;5040675;28;20072;-74
2022/03/04 02:25:43;;;;;;;16.85;11.93;;;11.10;99.90;;;;;;5047219;28;20036;-75
2022/03/04 02:28:09;;;;;;;19.98;12.05;;;11.20;99.90;;;;;;5055541;28;20610;-74
2022/03/04 02:30:39;;;;;;;18.77;11.15;;;11.20;99.90;;;;;;5030238;28;20047;-74
2022/03/04 02:33:06;;;;;;;15.95;11.20;;;11.10;99.90;;;;;;5054747;28;20041;-75
2022/03/04 02:35:34;;;;;;;19.15;11.32;;;11.10;99.90;;;;;;5047818;28;20373;-75
2022/03/04 02:38:01;;;;;;;17.17;11.45;;;11.00;99.90;;;;;;5047420;28;20034;-75
2022/03/04 02:40:27;;;;;;;21.98;12.52;;;11.10;99.90;;;;;;5046761;28;20950;-74
2022/03/04 02:42:54;;;;;;;17.13;11.27;;;11.00;99.90;;;;;;5046300;28;20033;-74
2022/03/04 02:45:20;;;;;;;18.25;11.90;;;11.10;99.90;;;;;;5044449;28;20068;-74
2022/03/04 02:47:47;;;;;;;16.55;12.00;;;11.10;99.90;;;;;;5049036;28;20064;-74
2022/03/04 02:50:13;;;;;;;18.95;11.70;;;11.00;99.90;;;;;;5043597;28;20377;-74
2022/03/04 02:52:40;;;;;;;19.48;13.25;;;11.00;99.90;;;;;;5042992;28;20044;-74
2022/03/04 02:55:11;;;;;;;19.85;12.55;;;11.00;99.90;;;;;;5059987;28;20037;-74
2022/03/04 02:57:39;;;;;;;18.98;12.18;;;10.90;99.90;;;;;;5056456;28;20045;-74
2022/03/04 03:00:06;;;;;;;19.38;11.38;;;10.90;99.90;;;;;;5055896;28;20124;-75
2022/03/04 03:02:33;;;;;;;18.85;11.50;;;10.90;99.90;;;;;;5056616;28;20049;-73
2022/03/04 03:04:59;;;;;;;20.30;12.52;;;10.80;99.90;;;;;;5054873;28;20045;-75
2022/03/04 03:07:25;;;;;;;22.05;12.40;;;10.80;99.90;;;;;;5035604;28;20037;-73
2022/03/04 03:09:52;;;;;;;20.25;11.98;;;10.80;99.90;;;;;;5040151;28;20033;-74
2022/03/04 03:12:18;;;;;;;22.42;12.90;;;10.70;99.90;;;;;;5056766;28;20037;-73
2022/03/04 03:14:44;;;;;;;17.98;12.02;;;10.70;99.90;;;;;;5039707;28;20039;-74
2022/03/04 03:17:10;;;;;;;19.25;13.23;;;10.60;99.90;;;;;;5046217;28;20060;-74
2022/03/04 03:19:36;;;;;;;18.63;12.57;;;10.60;99.90;;;;;;5047030;28;20040;-74
2022/03/04 03:22:03;;;;;;;18.50;12.55;;;10.60;99.90;;;;;;5043725;28;20033;-75
2022/03/04 03:24:29;;;;;;;17.77;12.93;;;10.50;99.90;;;;;;5044915;28;20480;-74
2022/03/04 03:26:56;;;;;;;18.20;12.75;;;10.50;99.90;;;;;;5043309;28;20155;-74
2022/03/04 03:29:22;;;;;;;17.95;12.52;;;10.50;99.90;;;;;;5037832;28;21453;-74
2022/03/04 03:31:52;;;;;;;19.80;12.82;;;10.50;99.90;;;;;;5039195;28;20049;-74
2022/03/04 03:34:18;;;;;;;16.95;12.73;;;10.40;99.90;;;;;;5059612;28;20041;-74
2022/03/04 03:36:44;;;;;;;18.80;12.07;;;10.30;99.90;;;;;;5045534;28;20038;-74
2022/03/04 03:39:10;;;;;;;19.40;12.20;;;10.20;99.90;;;;;;5038939;28;20095;-74
2022/03/04 03:41:36;;;;;;;19.08;13.00;;;10.20;99.90;;;;;;5044404;28;20037;-74
2022/03/04 03:44:03;;;;;;;19.30;12.90;;;10.10;99.90;;;;;;5043857;28;20037;-74
2022/03/04 03:46:28;;;;;;;17.60;11.95;;;10.20;99.90;;;;;;5042619;28;20422;-74
2022/03/04 03:48:55;;;;;;;16.88;11.88;;;10.20;99.90;;;;;;5052926;28;20080;-74
2022/03/04 03:51:21;;;;;;;17.05;11.68;;;10.20;99.90;;;;;;5037410;28;20474;-74
2022/03/04 03:53:46;;;;;;;16.92;11.02;;;10.20;99.90;;;;;;5041582;28;20045;-75
2022/03/04 03:56:13;;;;;;;14.82;9.63;;;10.20;99.90;;;;;;5040322;28;20048;-74
2022/03/04 03:58:39;;;;;;;14.82;9.90;;;10.20;99.90;;;;;;5040809;28;20140;-74
2022/03/04 04:01:06;;;;;;;16.40;10.70;;;10.10;99.90;;;;;;5043691;28;20025;-74
2022/03/04 04:03:32;;;;;;;13.75;10.23;;;10.10;99.90;;;;;;5024197;28;20433;-74
2022/03/04 04:06:01;;;;;;;17.67;10.57;;;10.00;99.90;;;;;;5064133;28;20021;-74
2022/03/04 04:08:28;;;;;;;13.77;9.95;;;10.00;99.90;;;;;;5060008;28;20449;-74
2022/03/04 04:10:54;;;;;;;14.30;9.95;;;10.00;99.90;;;;;;5040677;28;20034;-75
2022/03/04 04:13:20;;;;;;;18.73;9.93;;;10.00;99.90;;;;;;5048942;28;20036;-73
2022/03/04 04:15:46;;;;;;;13.60;9.73;;;10.00;99.90;;;;;;5046300;28;20106;-75
2022/03/04 04:18:12;;;;;;;15.20;9.73;;;10.00;99.90;;;;;;5056870;28;20041;-74
2022/03/04 04:20:38;;;;;;;14.23;10.15;;;9.90;99.90;;;;;;5059197;28;20059;-74
2022/03/04 04:23:04;;;;;;;14.38;9.15;;;9.90;99.90;;;;;;5041830;28;20179;-74
2022/03/04 04:25:31;;;;;;;13.77;8.93;;;9.90;99.90;;;;;;5055597;28;20049;-73
2022/03/04 04:27:57;;;;;;;15.55;8.60;;;9.80;99.90;;;;;;5055174;28;20037;-75
2022/03/04 04:30:23;;;;;;;12.50;8.50;;;9.90;99.90;;;;;;5056915;28;20408;-74
2022/03/04 04:32:49;;;;;;;13.07;8.68;;;9.80;99.90;;;;;;5046855;28;20041;-74
2022/03/04 04:35:15;;;;;;;13.38;8.95;;;9.80;99.90;;;;;;5037028;28;20385;-74
2022/03/04 04:37:41;;;;;;;13.25;8.55;;;9.80;99.90;;;;;;5038395;28;20047;-73
2022/03/04 04:40:09;;;;;;;12.48;8.70;;;9.80;99.90;;;;;;5039294;28;20041;-74
2022/03/04 04:42:35;;;;;;;10.70;8.52;;;9.80;99.90;;;;;;5054036;28;20034;-75
2022/03/04 04:45:01;;;;;;;15.85;9.57;;;9.80;99.90;;;;;;5018706;28;20100;-74
2022/03/04 04:47:27;;;;;;;15.07;9.18;;;9.80;99.90;;;;;;5021143;28;20038;-74
2022/03/04 04:49:54;;;;;;;13.60;8.65;;;9.80;99.90;;;;;;5025239;28;20448;-74
2022/03/04 04:52:21;;;;;;;13.32;9.05;;;9.80;99.90;;;;;;5051460;28;20030;-74
2022/03/04 04:54:47;;;;;;;14.05;9.60;;;9.80;99.90;;;;;;5049333;28;20132;-74
2022/03/04 04:57:13;;;;;;;13.43;8.90;;;9.80;99.90;;;;;;5021691;28;20124;-74
2022/03/04 04:59:40;;;;;;;11.57;8.95;;;9.80;99.90;;;;;;5052706;28;20121;-74
2022/03/04 05:02:06;;;;;;;12.05;9.13;;;9.80;99.90;;;;;;5020428;28;20039;-75
2022/03/04 05:04:32;;;;;;;12.75;9.07;;;9.80;99.90;;;;;;5045841;28;20037;-74
2022/03/04 05:06:58;;;;;;;15.07;9.20;;;9.70;99.90;;;;;;5041319;28;20037;-75
2022/03/04 05:09:24;;;;;;;14.18;8.55;;;9.80;99.90;;;;;;5038934;28;21229;-75
2022/03/04 05:11:50;;;;;;;13.07;8.80;;;9.80;99.90;;;;;;5042571;28;20047;-74
2022/03/04 05:14:16;;;;;;;14.23;9.02;;;9.80;99.90;;;;;;5045204;28;20038;-74
2022/03/04 05:16:42;;;;;;;13.40;8.90;;;9.80;99.90;;;;;;5042519;28;20029;-75
2022/03/04 05:19:08;;;;;;;14.98;8.98;;;9.70;99.90;;;;;;5040642;28;20037;-75
2022/03/04 05:21:34;;;;;;;13.68;8.35;;;9.70;99.90;;;;;;5036487;28;20040;-75
2022/03/04 05:24:01;;;;;;;11.90;9.25;;;9.70;99.90;;;;;;5055756;28;20041;-75
2022/03/04 05:26:33;;;;;;;13.60;8.93;;;9.70;99.90;;;;;;5038256;28;20103;-75
2022/03/04 05:29:00;;;;;;;15.17;8.67;;;9.70;99.90;;;;;;5041209;28;20488;-76
2022/03/04 05:31:27;;;;;;;12.43;9.10;;;9.60;99.90;;;;;;5042017;28;20037;-75
2022/03/04 05:33:56;;;;;;;12.98;8.88;;;9.60;99.90;;;;;;5052838;28;20091;-73
2022/03/04 05:36:22;;;;;;;12.63;8.35;;;9.70;99.90;;;;;;5038643;28;20091;-75
2022/03/04 05:38:49;;;;;;;13.05;8.77;;;9.70;99.90;;;;;;5036921;28;20081;-76
2022/03/04 05:41:16;;;;;;;13.18;8.85;;;9.80;99.90;;;;;;5037972;28;20029;-75
2022/03/04 05:43:43;;;;;;;13.00;8.27;;;9.90;99.90;;;;;;5036883;28;20048;-75
2022/03/04 05:46:09;;;;;;;12.88;8.95;;;10.00;99.90;;;;;;5052101;28;20044;-74
2022/03/04 05:48:35;;;;;;;14.50;9.02;;;10.00;99.90;;;;;;5041846;28;20446;-74
2022/03/04 05:51:03;;;;;;;11.30;8.50;;;10.00;99.90;;;;;;5041074;28;20029;-75
2022/03/04 05:53:31;;;;;;;12.07;8.73;;;10.00;99.90;;;;;;5037598;28;20038;-76
2022/03/04 05:55:57;;;;;;;12.00;8.57;;;10.00;99.90;;;;;;5056167;28;20037;-74
2022/03/04 05:58:23;;;;;;;10.82;8.40;;;10.00;99.90;;;;;;5038777;28;20041;-75
2022/03/04 06:00:49;;;;;;;12.10;8.30;;;10.00;99.90;;;;;;5054222;28;20139;-75
2022/03/04 06:03:16;;;;;;;12.35;8.30;;;9.90;99.90;;;;;;5054028;28;20083;-75
2022/03/04 06:05:43;;;;;;;11.77;7.85;;;10.00;99.90;;;;;;5057961;28;20029;-74
2022/03/04 06:08:09;;;;;;;15.57;7.85;;;9.90;99.90;;;;;;5055751;28;20042;-75
2022/03/04 06:10:36;;;;;;;12.52;8.90;;;9.90;99.90;;;;;;5035806;28;20044;-77
2022/03/04 06:13:03;;;;;;;12.68;7.82;;;9.90;99.90;;;;;;5048768;28;20373;-74
2022/03/04 06:15:29;;;;;;;11.70;8.20;;;9.90;99.90;;;;;;5043790;28;20043;-75
2022/03/04 06:17:55;;;;;;;12.05;8.00;;;10.00;99.90;;;;;;5045896;28;20048;-74
2022/03/04 06:20:21;;;;;;;14.30;7.85;;;10.10;99.90;;;;;;5033491;28;20497;-75
2022/03/04 06:22:49;;;;;;;12.75;8.30;;;10.10;99.90;;;;;;5042662;28;20037;-74
2022/03/04 06:25:15;;;;;;;11.05;7.68;;;10.20;99.90;;;;;;5042048;28;20038;-75
2022/03/04 06:27:58;;;;;;;15.52;8.13;;;10.20;99.90;;;;;;5061815;28;20052;-75
2022/03/04 06:30:26;;;;;;;13.30;8.25;;;10.10;99.90;;;;;;5055337;28;20061;-75
2022/03/04 06:33:30;;;;;;;13.13;7.90;;;10.20;99.90;;;;;;5039897;28;20108;-76
2022/03/04 06:35:40;;;;;;;12.73;8.13;;;10.30;99.90;;;;;;5040851;28;20453;-75
2022/03/04 06:38:06;;;;;;;11.23;7.75;;;10.30;99.90;;;;;;5063906;28;20048;-75
2022/03/04 06:40:33;;;;;;;13.13;8.10;;;10.40;99.90;;;;;;5063788;28;20105;-75
2022/03/04 06:42:59;;;;;;;12.60;8.18;;;10.50;99.90;;;;;;5063082;28;20104;-76
2022/03/04 06:45:25;;;;;;;10.25;7.97;;;10.60;99.90;;;;;;5055939;28;20485;-75
2022/03/04 06:47:53;;;;;;;11.48;7.85;;;10.70;99.90;;;;;;5059302;28;20040;-75
2022/03/04 06:50:19;;;;;;;10.38;7.50;;;10.70;99.90;;;;;;5044933;28;20029;-75
2022/03/04 06:52:46;;;;;;;14.73;7.82;;;10.80;99.90;;;;;;5042144;28;20116;-74
2022/03/04 06:55:12;;;;;;;12.57;8.32;;;10.90;99.90;;;;;;5049650;28;20052;-76
2022/03/04 06:57:39;;;;;;;9.43;7.45;;;11.00;99.90;;;;;;5063468;28;20048;-75
2022/03/04 07:00:07;;;;;;;13.85;7.38;;;11.10;99.90;;;;;;5058701;28;20715;-76
2022/03/04 07:02:35;;;;;;;12.23;7.70;;;11.20;99.90;;;;;;5047456;28;20041;-74
2022/03/04 07:05:04;;;;;;;11.15;7.95;;;11.30;99.90;;;;;;5047323;28;20045;-76
2022/03/04 07:07:30;;;;;;;16.30;8.40;;;11.40;99.90;;;;;;5043621;28;20037;-76
2022/03/04 07:09:57;;;;;;;15.57;9.30;;;11.50;99.90;;;;;;5055508;28;20033;-75
2022/03/04 07:12:23;;;;;;;13.30;9.02;;;11.60;99.90;;;;;;5043451;28;20037;-74
2022/03/04 07:14:51;;;;;;;12.27;8.55;;;11.60;99.90;;;;;;5059077;28;20372;-73
2022/03/04 07:17:17;;;;;;;12.70;8.90;;;11.70;99.90;;;;;;5044474;28;20504;-74
2022/03/04 07:19:43;;;;;;;12.88;8.27;;;11.80;99.90;;;;;;5051781;28;20124;-75
2022/03/04 07:22:11;;;;;;;13.15;8.38;;;11.80;99.90;;;;;;5049605;28;20037;-76
2022/03/04 07:24:37;;;;;;;11.70;8.00;;;11.90;99.90;;;;;;5043870;28;20049;-77
2022/03/04 07:27:03;;;;;;;10.07;7.55;;;12.00;99.90;;;;;;5041540;28;20039;-75
2022/03/04 07:29:29;;;;;;;11.80;8.27;;;12.10;99.90;;;;;;5044715;28;20047;-75
2022/03/04 07:31:56;;;;;;;12.02;8.23;;;12.20;99.90;;;;;;5041333;28;20045;-77
2022/03/04 07:34:23;;;;;;;12.90;7.57;;;12.20;99.90;;;;;;5041343;28;20132;-75
2022/03/04 07:36:51;;;;;;;10.95;8.10;;;12.40;99.90;;;;;;5053957;28;20047;-75
2022/03/04 07:39:17;;;;;;;16.15;7.93;;;12.40;99.90;;;;;;5048812;28;20043;-75
2022/03/04 07:41:43;;;;;;;13.30;7.35;;;12.50;99.90;;;;;;5043376;28;20405;-76
2022/03/04 07:44:13;;;;;;;17.73;8.10;;;12.50;99.90;;;;;;5025148;28;20064;-74
2022/03/04 07:46:39;;;;;;;16.98;8.30;;;12.60;99.90;;;;;;5050431;28;20096;-76
2022/03/04 07:49:05;;;;;;;15.95;8.05;;;12.70;99.90;;;;;;5033731;28;20041;-77
2022/03/04 07:51:31;;;;;;;13.50;8.98;;;12.80;99.90;;;;;;5045869;28;20063;-76
2022/03/04 07:53:58;;;;;;;12.02;9.00;;;12.90;99.90;;;;;;5054354;28;20049;-76
2022/03/04 07:56:23;;;;;;;12.05;8.40;;;12.90;99.90;;;;;;5039616;28;20041;-76
2022/03/04 07:58:50;;;;;;;13.82;8.52;;;13.00;99.90;;;;;;5040218;28;20037;-75
2022/03/04 08:01:16;;;;;;;11.85;7.75;;;13.10;99.90;;;;;;5041423;28;20037;-76
2022/03/04 08:03:45;;;;;;;12.57;8.07;;;13.20;99.90;;;;;;5032158;28;20664;-76
2022/03/04 08:06:15;;;;;;;16.95;8.00;;;13.30;99.90;;;;;;5031871;28;20479;-76
2022/03/04 08:08:41;;;;;;;11.57;6.78;;;13.40;99.90;;;;;;5045978;28;20036;-76
2022/03/04 08:11:07;;;;;;;11.35;7.28;;;13.40;99.90;;;;;;5035921;28;20041;-76
2022/03/04 08:13:34;;;;;;;11.23;6.68;;;13.50;99.90;;;;;;5039577;28;20144;-75
2022/03/04 08:16:01;;;;;;;13.32;6.85;;;13.60;99.90;;;;;;5030276;28;20119;-75
2022/03/04 08:18:26;;;;;;;11.50;6.32;;;13.60;99.90;;;;;;5023668;28;20094;-76
2022/03/04 08:20:53;;;;;;;10.82;6.18;;;13.60;99.90;;;;;;5029320;28;20445;-76
2022/03/04 08:23:19;;;;;;;10.07;6.95;;;13.70;99.90;;;;;;5030735;28;20102;-75
2022/03/04 08:25:46;;;;;;;12.68;7.28;;;13.60;99.90;;;;;;5028010;28;20085;-76
2022/03/04 08:28:12;;;;;;;10.60;6.85;;;13.60;99.90;;;;;;5043571;28;20360;-75
2022/03/04 08:30:39;;;;;;;12.95;7.45;;;13.70;99.90;;;;;;5030405;28;20487;-76
2022/03/04 08:33:06;;;;;;;11.38;7.15;;;13.60;99.90;;;;;;5020367;28;20064;-75
2022/03/04 08:35:32;;;;;;;10.65;6.78;;;13.60;99.90;;;;;;5017412;28;20076;-75
2022/03/04 08:38:00;;;;;;;10.45;7.00;;;13.60;99.90;;;;;;5048707;28;20032;-75
2022/03/04 08:40:26;;;;;;;10.77;7.43;;;13.40;99.90;;;;;;5029219;28;20787;-77
2022/03/04 08:42:52;;;;;;;12.63;7.60;;;13.30;99.90;;;;;;5032934;28;20435;-76
2022/03/04 08:45:18;;;;;;;11.60;7.18;;;13.30;99.90;;;;;;5029207;28;20352;-75
2022/03/04 08:47:44;;;;;;;11.40;7.40;;;13.30;99.90;;;;;;5039317;28;20860;-76
2022/03/04 08:50:12;;;;;;;10.48;7.30;;;13.40;99.90;;;;;;5029426;28;20040;-74
2022/03/04 08:52:39;;;;;;;11.10;7.10;;;13.40;99.90;;;;;;5032440;28;20045;-76
2022/03/04 08:55:07;;;;;;;10.25;7.07;;;13.50;99.90;;;;;;5043441;28;20033;-75
2022/03/04 08:57:34;;;;;;;9.20;6.85;;;13.50;99.90;;;;;;5037098;28;20145;-76
2022/03/04 09:00:00;;;;;;;11.63;7.28;;;13.70;99.90;;;;;;5040406;28;20108;-75
2022/03/04 09:02:26;;;;;;;10.45;7.43;;;13.80;99.90;;;;;;5040489;28;20167;-75
2022/03/04 09:04:52;;;;;;;13.07;7.30;;;13.90;99.90;;;;;;5040800;28;20086;-78
2022/03/04 09:07:18;;;;;;;11.73;8.25;;;14.00;99.90;;;;;;5040638;28;20045;-75
2022/03/04 09:09:45;;;;;;;10.35;7.82;;;14.00;99.90;;;;;;5042559;28;20041;-75
2022/03/04 09:12:12;;;;;;;11.60;7.70;;;14.00;99.90;;;;;;5036958;28;20045;-76
2022/03/04 09:14:38;;;;;;;13.23;7.93;;;14.00;99.90;;;;;;5038735;28;20036;-77
2022/03/04 09:17:04;;;;;;;11.77;7.82;;;14.20;99.90;;;;;;5056266;28;20034;-76
2022/03/04 09:19:30;;;;;;;9.75;7.35;;;14.20;99.90;;;;;;5040733;28;20039;-75
2022/03/04 09:21:57;;;;;;;11.60;7.80;;;14.40;99.90;;;;;;5042534;28;20097;-76
2022/03/04 09:24:25;;;;;;;14.40;8.05;;;14.50;99.90;;;;;;5037246;28;20048;-75
2022/03/04 09:26:53;;;;;;;9.68;7.05;;;14.60;99.90;;;;;;5039892;28;20056;-76
2022/03/04 09:29:20;;;;;;;11.60;7.30;;;14.70;99.90;;;;;;5042233;28;20041;-77
2022/03/04 09:31:47;;;;;;;12.35;7.65;;;14.80;99.90;;;;;;5058099;28;20206;-77
2022/03/04 09:34:14;;;;;;;9.60;7.25;;;14.90;99.90;;;;;;5042768;28;20038;-76
2022/03/04 09:36:42;;;;;;;10.68;7.20;;;14.90;99.90;;;;;;5040131;28;20068;-76
2022/03/04 09:39:10;;;;;;;10.70;7.65;;;15.10;99.90;;;;;;5040412;28;20082;-76
2022/03/04 09:41:40;;;;;;;10.82;7.32;;;15.10;99.90;;;;;;5054944;28;20217;-75
2022/03/04 09:44:08;;;;;;;14.75;8.27;;;15.20;99.90;;;;;;5035459;28;20108;-76
2022/03/04 09:46:34;;;;;;;13.57;7.93;;;15.10;99.90;;;;;;5040751;28;20476;-75
2022/03/04 09:49:00;;;;;;;12.32;7.75;;;15.10;99.90;;;;;;5050439;28;20473;-76
2022/03/04 09:51:28;;;;;;;13.90;7.63;;;15.10;99.90;;;;;;5039710;28;20048;-77
2022/03/04 09:53:54;;;;;;;13.27;7.32;;;15.10;99.90;;;;;;5020011;28;20369;-76
2022/03/04 09:56:21;;;;;;;14.88;7.95;;;15.30;99.90;;;;;;5041563;28;20076;-75
2022/03/04 09:58:48;;;;;;;12.32;7.55;;;15.60;99.90;;;;;;5043807;28;20033;-76
2022/03/04 10:01:16;;;;;;;13.05;6.97;;;15.50;99.90;;;;;;5030764;28;20045;-76
2022/03/04 10:03:45;;;;;;;10.30;6.97;;;15.80;99.90;;;;;;5032181;28;20071;-76
2022/03/04 10:06:13;;;;;;;14.82;6.90;;;16.10;99.90;;;;;;5046346;28;20113;-75
2022/03/04 10:08:43;;;;;;;11.80;7.30;;;16.00;99.90;;;;;;5030470;28;20072;-76
2022/03/04 10:11:11;;;;;;;11.55;6.38;;;16.40;99.90;;;;;;5041639;28;20038;-75
2022/03/04 10:13:49;;;;;;;9.57;6.70;;;16.60;99.90;;;;;;5028725;28;20385;-75
2022/03/04 10:16:29;;;;;;;16.13;7.18;;;16.50;99.90;;;;;;5043498;28;20026;-76
2022/03/04 10:19:13;;;;;;;13.18;7.22;;;16.30;99.90;;;;;;5045048;28;20573;-75
2022/03/04 10:22:00;;;;;;;8.20;5.97;;;16.40;99.90;;;;;;5025171;28;20029;-77
2022/03/04 10:24:41;;;;;;;9.45;5.95;;;16.60;99.90;;;;;;5054083;28;20045;-78
2022/03/04 10:27:12;;;;;;;14.18;6.90;;;16.60;99.90;;;;;;5019547;28;20041;-77
2022/03/04 10:29:46;;;;;;;11.23;6.63;;;16.60;99.90;;;;;;5049660;28;20057;-77
2022/03/04 10:32:20;;;;;;;11.75;6.70;;;16.90;99.90;;;;;;5032570;28;20120;-78
2022/03/04 10:35:00;;;;;;;8.05;6.07;;;17.00;99.90;;;;;;5038419;28;20136;-77
2022/03/04 10:37:48;;;;;;;8.05;6.18;;;17.10;99.60;;;;;;5040054;28;20092;-76
2022/03/04 10:40:19;;;;;;;13.30;6.07;;;17.40;99.50;;;;;;5041349;28;20041;-77
2022/03/04 10:42:53;;;;;;;6.83;5.83;;;17.20;99.30;;;;;;5031484;28;20049;-77
2022/03/04 10:45:30;;;;;;;10.35;6.70;;;17.60;99.10;;;;;;5027358;28;20083;-76
2022/03/04 10:48:08;;;;;;;11.77;6.80;;;17.50;99.60;;;;;;5033047;28;20087;-75
2022/03/04 10:50:38;;;;;;;9.05;6.70;;;17.80;99.20;;;;;;5028836;28;20482;-77
2022/03/04 10:53:10;;;;;;;10.63;7.00;;;17.70;99.20;;;;;;5027272;28;20067;-77
2022/03/04 10:55:45;;;;;;;10.30;7.07;;;17.10;99.90;;;;;;5048753;28;20467;-77
2022/03/04 10:58:27;;;;;;;12.35;6.63;;;17.60;99.40;;;;;;5038557;28;20056;-76
2022/03/04 11:01:19;;;;;;;10.38;6.80;;;17.90;99.00;;;;;;5041550;28;20396;-76
2022/03/04 11:03:47;;;;;;;10.30;6.57;;;18.00;98.70;;;;;;5032151;28;20098;-77
2022/03/04 11:06:15;;;;;;;10.95;7.00;;;18.00;98.50;;;;;;5053877;28;20033;-76
2022/03/04 11:08:42;;;;;;;12.43;6.40;;;18.40;98.30;;;;;;5030836;28;20152;-75
2022/03/04 11:11:09;;;;;;;10.10;6.82;;;18.00;98.40;;;;;;5037873;28;20037;-76
2022/03/04 11:13:37;;;;;;;13.52;6.97;;;17.80;98.90;;;;;;5031867;28;20096;-75
2022/03/04 11:16:05;;;;;;;12.90;7.90;;;18.00;99.00;;;;;;5029385;28;20048;-76
2022/03/04 11:18:33;;;;;;;9.82;7.10;;;18.00;99.00;;;;;;5045933;28;20095;-75
2022/03/04 11:21:00;;;;;;;9.77;6.40;;;18.10;99.00;;;;;;5035281;28;20103;-76
2022/03/04 11:23:29;;;;;;;9.98;7.32;;;18.60;98.70;;;;;;5041527;28;20405;-76
2022/03/04 11:26:00;;;;;;;9.10;6.50;;;19.20;97.50;;;;;;5064586;28;20043;-76
2022/03/04 11:28:37;;;;;;;12.27;6.77;;;19.80;97.00;;;;;;5051799;28;20038;-76
2022/03/04 11:31:07;;;;;;;9.95;5.85;;;19.90;96.30;;;;;;5020417;28;20041;-75
2022/03/04 11:33:46;;;;;;;9.85;5.88;;;19.30;96.50;;;;;;5047259;28;20071;-81
2022/03/04 11:36:14;;;;;;;12.20;6.03;;;19.00;96.90;;;;;;5025924;28;20065;-78
2022/03/04 11:38:55;;;;;;;10.32;6.30;;;19.30;96.90;;;;;;5067039;28;20049;-77
2022/03/04 11:41:36;;;;;;;9.02;6.00;;;19.00;96.70;;;;;;5062099;28;20057;-78
2022/03/04 11:44:23;;;;;;;7.55;5.10;;;18.50;97.10;;;;;;5068933;28;20033;-81
2022/03/04 11:47:04;;;;;;;7.65;4.50;;;18.60;97.00;;;;;;5060206;28;20049;-81
2022/03/04 11:49:49;;;;;;;10.55;5.28;;;18.30;97.20;;;;;;5070404;28;20079;-78
2022/03/04 11:52:24;;;;;;;8.35;5.20;;;17.90;97.60;;;;;;5069293;28;20415;-77
2022/03/04 11:54:50;;;;;;;8.75;5.22;;;17.90;97.70;;;;;;5046746;28;20255;-77
2022/03/04 11:57:29;;;;;;;9.88;5.30;;;18.50;97.00;;;;;;5042363;28;20039;-77
2022/03/04 12:00:22;;;;;;;9.65;6.15;;;18.80;96.80;;;;;;5033268;28;20049;-77
2022/03/04 12:02:52;;;;;;;10.50;5.68;;;18.60;97.10;;;;;;5034751;28;20143;-77
2022/03/04 12:05:25;;;;;;;9.05;5.75;;;17.70;97.30;;;;;;5053314;28;20052;-80
2022/03/04 12:07:55;;;;;;;12.75;6.80;;;17.80;97.80;;;;;;5029126;28;20041;-78
2022/03/04 12:10:24;;;;;;;15.13;6.97;;;17.70;97.90;;;;;;5059058;28;20043;-79
2022/03/04 12:13:01;;;;;;;13.80;7.30;;;17.50;98.10;;;;;;5053995;28;20080;-77
2022/03/04 12:15:41;;;;;;;12.10;7.22;;;18.00;97.90;;;;;;5037023;28;20041;-79
2022/03/04 12:18:15;;;;;;;13.88;6.95;;;18.00;97.50;;;;;;5057542;28;20072;-75
2022/03/04 12:20:44;;;;;;;11.23;7.22;;;17.80;98.00;;;;;;5039472;28;20052;-77
2022/03/04 12:23:36;;;;;;;12.98;7.40;;;17.50;98.20;;;;;;5051112;28;20033;-77
2022/03/04 12:26:05;;;;;;;16.08;7.38;;;18.00;97.90;;;;;;5038810;28;20559;-77
2022/03/04 12:28:41;;;;;;;14.23;7.38;;;17.60;98.30;;;;;;5029418;28;20057;-80
2022/03/04 12:31:08;;;;;;;16.30;7.45;;;17.90;98.40;;;;;;5033403;28;20056;-77
2022/03/04 12:33:36;;;;;;;15.70;8.45;;;18.20;98.00;;;;;;5030609;28;20105;-78
2022/03/04 12:36:09;;;;;;;10.43;7.53;;;18.10;97.60;;;;;;5065125;28;20630;-77
2022/03/04 12:38:44;;;;;;;9.40;7.05;;;18.10;98.10;;;;;;5034877;28;20055;-78
2022/03/04 12:41:20;;;;;;;9.52;6.75;;;18.10;98.00;;;;;;5033488;28;20083;-78